QFA923 YBCS-YSSY
Flight info
| Callsign | QFA923 |
|---|---|
| Flight time | N/A |
| Altitude | 37000 |
| Route | CS Y177 AKROM Y153 ROKUU H652 BOREE |
| Aircraft | B738/M-SDE2E3FGHIRWXY/LB1 |
Departure
| Time | 2026-05-04 05:49 |
|---|---|
| Airport | Cairns International Airport (YBCS) |
Arrival
| Time | N/A |
|---|---|
| Airport | Sydney Kingsford Smith International Airport (YSSY) |
| Time | Latitude | Longitude | Altitude | Speed | Heading |
|---|---|---|---|---|---|
| 2026-05-04 05:21 | -16.87721 | 145.75271 | 18 ft | 0 kts | 68° |
| 2026-05-04 05:38 | -16.87722 | 145.75270 | 16 ft | 2 kts | 68° |
| 2026-05-04 05:39 | -16.87732 | 145.75245 | 18 ft | 4 kts | 67° |
| 2026-05-04 05:39 | -16.87752 | 145.75197 | 18 ft | 4 kts | 53° |
| 2026-05-04 05:39 | -16.87770 | 145.75185 | 17 ft | 4 kts | 350° |
| 2026-05-04 05:40 | -16.87793 | 145.75193 | 17 ft | 0 kts | 336° |
| 2026-05-04 05:42 | -16.87785 | 145.75189 | 17 ft | 4 kts | 336° |
| 2026-05-04 05:42 | -16.87734 | 145.75166 | 17 ft | 12 kts | 336° |
| 2026-05-04 05:43 | -16.87663 | 145.75128 | 15 ft | 10 kts | 316° |
| 2026-05-04 05:43 | -16.87657 | 145.75062 | 15 ft | 9 kts | 279° |
| 2026-05-04 05:43 | -16.87609 | 145.75017 | 15 ft | 9 kts | 335° |
| 2026-05-04 05:45 | -16.87122 | 145.74798 | -4 ft | 15 kts | 336° |
| 2026-05-04 05:45 | -16.87048 | 145.74730 | -4 ft | 15 kts | 281° |
| 2026-05-04 05:47 | -16.87174 | 145.74621 | -4 ft | 0 kts | 157° |
| 2026-05-04 05:48 | -16.87175 | 145.74621 | -4 ft | 1 kts | 157° |
| 2026-05-04 05:48 | -16.87334 | 145.74694 | -3 ft | 64 kts | 156° |
| 2026-05-04 05:48 | -16.87994 | 145.74997 | 18 ft | 140 kts | 157° |
| 2026-05-04 05:49 | -16.89010 | 145.75443 | 479 ft | 169 kts | 155° |
| 2026-05-04 05:49 | -16.90065 | 145.76083 | 1334 ft | 182 kts | 129° |
| 2026-05-04 05:49 | -16.90529 | 145.77349 | 2083 ft | 196 kts | 95° |
| 2026-05-04 05:49 | -16.90317 | 145.78792 | 2680 ft | 214 kts | 66° |
| 2026-05-04 05:51 | -16.84038 | 145.87388 | 6906 ft | 235 kts | 94° |
| 2026-05-04 05:51 | -16.84180 | 145.89105 | 7409 ft | 240 kts | 100° |
| 2026-05-04 05:52 | -16.84452 | 145.90845 | 7910 ft | 246 kts | 102° |
| 2026-05-04 05:52 | -16.84758 | 145.92623 | 8423 ft | 251 kts | 101° |
| 2026-05-04 05:52 | -16.85065 | 145.94411 | 8932 ft | 256 kts | 101° |
| 2026-05-04 05:52 | -16.85382 | 145.96258 | 9456 ft | 261 kts | 100° |
| 2026-05-04 05:53 | -16.85705 | 145.98137 | 9966 ft | 265 kts | 100° |
| 2026-05-04 05:54 | -16.93560 | 146.08226 | 13138 ft | 307 kts | 155° |
| 2026-05-04 05:55 | -16.95531 | 146.09201 | 13596 ft | 318 kts | 155° |
| 2026-05-04 05:55 | -16.97567 | 146.10210 | 14017 ft | 329 kts | 154° |
| 2026-05-04 05:55 | -16.99663 | 146.11254 | 14417 ft | 339 kts | 154° |
| 2026-05-04 05:55 | -17.01836 | 146.12339 | 14792 ft | 351 kts | 154° |
| 2026-05-04 05:56 | -17.04074 | 146.13459 | 15141 ft | 362 kts | 154° |
| 2026-05-04 05:56 | -17.06347 | 146.14599 | 15499 ft | 372 kts | 154° |
| 2026-05-04 05:56 | -17.06920 | 146.14886 | 15585 ft | 374 kts | 154° |
| 2026-05-04 05:57 | -17.08844 | 146.15851 | 15746 ft | 387 kts | 154° |
| 2026-05-04 05:57 | -17.11317 | 146.17095 | 15953 ft | 400 kts | 154° |
| 2026-05-04 05:57 | -17.13832 | 146.18360 | 16384 ft | 405 kts | 154° |
| 2026-05-04 05:58 | -17.15529 | 146.19214 | 16693 ft | 408 kts | 154° |
| 2026-05-04 05:58 | -17.18097 | 146.20507 | 17207 ft | 410 kts | 154° |
| 2026-05-04 05:58 | -17.21526 | 146.22234 | 17897 ft | 414 kts | 154° |
| 2026-05-04 05:58 | -17.24126 | 146.23544 | 18382 ft | 416 kts | 154° |
| 2026-05-04 05:59 | -17.26754 | 146.24868 | 18757 ft | 421 kts | 154° |
| 2026-05-04 05:59 | -17.28521 | 146.25759 | 19027 ft | 423 kts | 154° |
| 2026-05-04 05:59 | -17.32040 | 146.27533 | 19607 ft | 426 kts | 154° |
| 2026-05-04 05:59 | -17.33849 | 146.28445 | 19898 ft | 427 kts | 154° |
| 2026-05-04 06:00 | -17.36532 | 146.29799 | 20305 ft | 430 kts | 154° |
| 2026-05-04 06:00 | -17.39241 | 146.31166 | 20718 ft | 433 kts | 155° |
| 2026-05-04 06:00 | -17.41958 | 146.32538 | 21129 ft | 435 kts | 155° |
| 2026-05-04 06:00 | -17.44694 | 146.33919 | 21538 ft | 438 kts | 155° |
| 2026-05-04 06:01 | -17.47419 | 146.35295 | 21920 ft | 440 kts | 155° |
| 2026-05-04 06:01 | -17.50190 | 146.36696 | 22305 ft | 443 kts | 155° |
| 2026-05-04 06:03 | -17.69300 | 146.46366 | 25577 ft | 440 kts | 156° |
| 2026-05-04 06:03 | -17.72065 | 146.47767 | 25931 ft | 442 kts | 156° |
| 2026-05-04 06:05 | -17.91520 | 146.57640 | 28919 ft | 444 kts | 157° |
| 2026-05-04 06:05 | -17.97095 | 146.60473 | 29752 ft | 445 kts | 157° |
| 2026-05-04 06:05 | -17.99879 | 146.61890 | 30221 ft | 443 kts | 157° |
| 2026-05-04 06:06 | -18.02660 | 146.63305 | 30618 ft | 442 kts | 157° |
| 2026-05-04 06:06 | -18.05383 | 146.64691 | 30993 ft | 441 kts | 158° |
| 2026-05-04 06:06 | -18.08149 | 146.66099 | 31386 ft | 440 kts | 158° |
| 2026-05-04 06:06 | -18.10903 | 146.67502 | 31790 ft | 439 kts | 158° |
| 2026-05-04 06:07 | -18.13650 | 146.68901 | 32178 ft | 438 kts | 158° |
| 2026-05-04 06:07 | -18.16392 | 146.70299 | 32547 ft | 437 kts | 158° |
| 2026-05-04 06:07 | -18.19128 | 146.71693 | 32924 ft | 436 kts | 158° |
| 2026-05-04 06:07 | -18.21855 | 146.73084 | 33293 ft | 435 kts | 159° |
| 2026-05-04 06:08 | -18.24574 | 146.74471 | 33665 ft | 433 kts | 159° |
| 2026-05-04 06:08 | -18.27247 | 146.75836 | 34034 ft | 432 kts | 159° |
| 2026-05-04 06:08 | -18.29949 | 146.77215 | 34360 ft | 429 kts | 159° |
| 2026-05-04 06:08 | -18.32633 | 146.78586 | 34690 ft | 427 kts | 159° |
| 2026-05-04 06:09 | -18.35308 | 146.79940 | 34973 ft | 425 kts | 162° |
| 2026-05-04 06:09 | -18.38085 | 146.80942 | 35183 ft | 419 kts | 171° |
| 2026-05-04 06:11 | -18.57781 | 146.85939 | 36840 ft | 414 kts | 172° |
| 2026-05-04 06:11 | -18.60574 | 146.86678 | 37008 ft | 415 kts | 172° |
| 2026-05-04 06:13 | -18.80902 | 146.92080 | 37005 ft | 446 kts | 172° |
| 2026-05-04 06:14 | -18.99395 | 146.97017 | 36977 ft | 463 kts | 172° |
| 2026-05-04 06:14 | -19.02518 | 146.97854 | 36987 ft | 462 kts | 172° |
| 2026-05-04 06:15 | -19.08745 | 146.99521 | 36986 ft | 461 kts | 172° |
| 2026-05-04 06:15 | -19.14953 | 147.01182 | 36995 ft | 460 kts | 172° |
| 2026-05-04 06:16 | -19.21154 | 147.02842 | 36995 ft | 459 kts | 172° |
| 2026-05-04 06:16 | -19.27347 | 147.04499 | 36997 ft | 457 kts | 172° |
| 2026-05-04 06:17 | -19.33485 | 147.06146 | 36989 ft | 457 kts | 172° |
| 2026-05-04 06:17 | -19.39650 | 147.07800 | 37000 ft | 457 kts | 172° |
| 2026-05-04 06:18 | -19.45828 | 147.09458 | 36998 ft | 458 kts | 172° |
| 2026-05-04 06:20 | -19.71076 | 147.16248 | 36999 ft | 482 kts | 172° |
| 2026-05-04 06:21 | -19.87296 | 147.20636 | 36978 ft | 467 kts | 172° |
| 2026-05-04 06:22 | -19.93516 | 147.22316 | 36984 ft | 461 kts | 172° |
| 2026-05-04 06:25 | -20.36954 | 147.34059 | 37007 ft | 463 kts | 173° |
| 2026-05-04 06:26 | -20.43186 | 147.35752 | 36995 ft | 465 kts | 173° |
| 2026-05-04 06:26 | -20.49463 | 147.37457 | 36994 ft | 466 kts | 173° |
| 2026-05-04 06:27 | -20.65229 | 147.41751 | 36991 ft | 468 kts | 173° |
| 2026-05-04 06:28 | -20.71534 | 147.43471 | 37001 ft | 467 kts | 173° |
| 2026-05-04 06:28 | -20.77833 | 147.45189 | 37003 ft | 467 kts | 173° |
| 2026-05-04 06:29 | -20.84102 | 147.46901 | 37005 ft | 468 kts | 173° |
| 2026-05-04 06:29 | -20.90409 | 147.48625 | 37001 ft | 468 kts | 173° |
| 2026-05-04 06:30 | -20.96724 | 147.50352 | 37010 ft | 468 kts | 173° |
| 2026-05-04 06:30 | -21.03040 | 147.52081 | 37000 ft | 468 kts | 173° |
| 2026-05-04 06:31 | -21.09360 | 147.53814 | 37000 ft | 468 kts | 173° |
| 2026-05-04 06:31 | -21.15660 | 147.55542 | 37001 ft | 467 kts | 173° |
| 2026-05-04 06:33 | -21.40828 | 147.62460 | 37006 ft | 467 kts | 173° |
| 2026-05-04 06:34 | -21.47133 | 147.64198 | 37006 ft | 467 kts | 173° |
| 2026-05-04 06:34 | -21.53382 | 147.65921 | 37019 ft | 466 kts | 173° |
| 2026-05-04 06:36 | -21.78513 | 147.72866 | 37010 ft | 465 kts | 173° |
| 2026-05-04 06:37 | -21.84787 | 147.74604 | 37015 ft | 465 kts | 173° |
| 2026-05-04 06:37 | -21.91030 | 147.76334 | 37022 ft | 466 kts | 173° |
| 2026-05-04 06:38 | -21.97305 | 147.78075 | 37011 ft | 466 kts | 173° |
| 2026-05-04 06:40 | -22.22446 | 147.85067 | 37023 ft | 468 kts | 173° |
| 2026-05-04 06:40 | -22.28756 | 147.86826 | 37022 ft | 469 kts | 173° |
| 2026-05-04 06:41 | -22.35093 | 147.88595 | 37029 ft | 469 kts | 173° |
| 2026-05-04 06:41 | -22.41427 | 147.90364 | 37045 ft | 470 kts | 174° |
| 2026-05-04 06:42 | -22.47727 | 147.92126 | 37038 ft | 470 kts | 174° |
| 2026-05-04 06:44 | -22.73060 | 147.99226 | 37033 ft | 470 kts | 174° |
| 2026-05-04 06:44 | -22.79392 | 148.01005 | 37036 ft | 469 kts | 174° |
| 2026-05-04 06:45 | -22.85712 | 148.02781 | 37023 ft | 469 kts | 174° |
| 2026-05-04 06:45 | -22.92031 | 148.04560 | 37023 ft | 468 kts | 174° |
| 2026-05-04 06:46 | -22.98317 | 148.06331 | 37035 ft | 468 kts | 174° |
| 2026-05-04 06:46 | -23.04636 | 148.08113 | 37036 ft | 469 kts | 174° |
| 2026-05-04 06:48 | -23.28861 | 148.14961 | 37048 ft | 470 kts | 174° |
| 2026-05-04 06:50 | -23.54340 | 148.22192 | 37024 ft | 474 kts | 174° |
| 2026-05-04 06:51 | -23.60736 | 148.24012 | 37029 ft | 475 kts | 174° |
| 2026-05-04 06:51 | -23.67038 | 148.25813 | 37005 ft | 465 kts | 174° |
| 2026-05-04 06:52 | -23.73257 | 148.27591 | 37017 ft | 460 kts | 174° |
| 2026-05-04 06:52 | -23.79439 | 148.29352 | 37018 ft | 458 kts | 174° |
| 2026-05-04 06:53 | -23.85599 | 148.31108 | 37022 ft | 456 kts | 174° |
| 2026-05-04 06:53 | -23.91715 | 148.32855 | 37028 ft | 457 kts | 174° |
| 2026-05-04 06:54 | -23.97871 | 148.34615 | 37031 ft | 457 kts | 174° |
| 2026-05-04 06:54 | -24.04043 | 148.36382 | 37035 ft | 459 kts | 174° |
| 2026-05-04 06:55 | -24.10250 | 148.38161 | 37037 ft | 462 kts | 174° |
| 2026-05-04 06:55 | -24.16485 | 148.39950 | 37035 ft | 464 kts | 174° |
| 2026-05-04 06:57 | -24.41633 | 148.47190 | 37027 ft | 469 kts | 174° |
| 2026-05-04 06:58 | -24.47936 | 148.49010 | 37037 ft | 468 kts | 174° |
| 2026-05-04 06:58 | -24.54165 | 148.50810 | 37024 ft | 468 kts | 174° |
| 2026-05-04 06:59 | -24.60454 | 148.52629 | 37025 ft | 466 kts | 174° |
| 2026-05-04 06:59 | -24.66718 | 148.54443 | 37034 ft | 465 kts | 174° |
| 2026-05-04 07:01 | -24.91639 | 148.61673 | 37032 ft | 463 kts | 175° |
| 2026-05-04 07:02 | -24.97866 | 148.63485 | 37034 ft | 463 kts | 175° |